sensor_id;sensor_type;location;lat;lon;timestamp;P1;durP1;ratioP1;P2;durP2;ratioP2
3771;SDS011;1901;48.172;12.824;2024-03-02T00:00:15;119.30;;;23.45;;
3771;SDS011;1901;48.172;12.824;2024-03-02T00:02:41;111.82;;;23.63;;
3771;SDS011;1901;48.172;12.824;2024-03-02T00:05:06;163.93;;;23.30;;
3771;SDS011;1901;48.172;12.824;2024-03-02T00:07:31;160.95;;;25.00;;
3771;SDS011;1901;48.172;12.824;2024-03-02T00:09:57;121.03;;;22.00;;
3771;SDS011;1901;48.172;12.824;2024-03-02T00:12:22;174.73;;;27.48;;
3771;SDS011;1901;48.172;12.824;2024-03-02T00:14:47;83.17;;;20.47;;
3771;SDS011;1901;48.172;12.824;2024-03-02T00:17:17;159.68;;;24.00;;
3771;SDS011;1901;48.172;12.824;2024-03-02T00:19:46;116.28;;;21.55;;
3771;SDS011;1901;48.172;12.824;2024-03-02T00:22:11;148.73;;;25.02;;
3771;SDS011;1901;48.172;12.824;2024-03-02T00:24:36;167.50;;;27.20;;
3771;SDS011;1901;48.172;12.824;2024-03-02T00:27:02;188.32;;;27.60;;
3771;SDS011;1901;48.172;12.824;2024-03-02T00:29:28;152.50;;;23.27;;
3771;SDS011;1901;48.172;12.824;2024-03-02T00:31:54;172.95;;;24.00;;
3771;SDS011;1901;48.172;12.824;2024-03-02T00:34:20;167.32;;;24.20;;
3771;SDS011;1901;48.172;12.824;2024-03-02T00:36:45;122.97;;;21.00;;
3771;SDS011;1901;48.172;12.824;2024-03-02T00:39:11;219.43;;;26.63;;
3771;SDS011;1901;48.172;12.824;2024-03-02T00:41:38;219.40;;;26.20;;
3771;SDS011;1901;48.172;12.824;2024-03-02T00:44:12;226.00;;;27.50;;
3771;SDS011;1901;48.172;12.824;2024-03-02T00:46:38;168.07;;;25.00;;
3771;SDS011;1901;48.172;12.824;2024-03-02T00:49:04;168.63;;;24.17;;
3771;SDS011;1901;48.172;12.824;2024-03-02T00:51:30;224.57;;;25.70;;
3771;SDS011;1901;48.172;12.824;2024-03-02T00:53:57;165.30;;;23.45;;
3771;SDS011;1901;48.172;12.824;2024-03-02T00:56:23;209.68;;;22.23;;
3771;SDS011;1901;48.172;12.824;2024-03-02T00:58:49;150.35;;;18.40;;
3771;SDS011;1901;48.172;12.824;2024-03-02T01:01:14;191.52;;;21.95;;
3771;SDS011;1901;48.172;12.824;2024-03-02T01:03:41;297.10;;;27.55;;
3771;SDS011;1901;48.172;12.824;2024-03-02T01:06:06;255.32;;;25.75;;
3771;SDS011;1901;48.172;12.824;2024-03-02T01:08:32;206.27;;;21.60;;
3771;SDS011;1901;48.172;12.824;2024-03-02T01:10:57;147.93;;;19.73;;
3771;SDS011;1901;48.172;12.824;2024-03-02T01:13:22;130.82;;;18.83;;
3771;SDS011;1901;48.172;12.824;2024-03-02T01:15:48;240.20;;;22.02;;
3771;SDS011;1901;48.172;12.824;2024-03-02T01:18:13;121.05;;;15.90;;
3771;SDS011;1901;48.172;12.824;2024-03-02T01:20:39;197.67;;;20.30;;
3771;SDS011;1901;48.172;12.824;2024-03-02T01:23:04;164.93;;;18.20;;
3771;SDS011;1901;48.172;12.824;2024-03-02T01:25:29;66.60;;;15.57;;
3771;SDS011;1901;48.172;12.824;2024-03-02T01:27:54;39.50;;;13.90;;
3771;SDS011;1901;48.172;12.824;2024-03-02T01:30:19;59.13;;;14.20;;
3771;SDS011;1901;48.172;12.824;2024-03-02T01:32:44;34.73;;;14.70;;
3771;SDS011;1901;48.172;12.824;2024-03-02T01:35:10;42.42;;;13.45;;
3771;SDS011;1901;48.172;12.824;2024-03-02T01:37:35;51.97;;;15.73;;
3771;SDS011;1901;48.172;12.824;2024-03-02T01:40:00;56.03;;;16.65;;
3771;SDS011;1901;48.172;12.824;2024-03-02T01:42:25;50.60;;;17.33;;
3771;SDS011;1901;48.172;12.824;2024-03-02T01:44:51;72.07;;;17.83;;
3771;SDS011;1901;48.172;12.824;2024-03-02T01:47:16;59.22;;;17.23;;
3771;SDS011;1901;48.172;12.824;2024-03-02T01:49:41;55.57;;;17.70;;
3771;SDS011;1901;48.172;12.824;2024-03-02T01:52:06;56.40;;;18.07;;
3771;SDS011;1901;48.172;12.824;2024-03-02T01:54:32;52.13;;;18.55;;
3771;SDS011;1901;48.172;12.824;2024-03-02T01:56:57;46.58;;;17.13;;
3771;SDS011;1901;48.172;12.824;2024-03-02T01:59:22;46.03;;;17.27;;
3771;SDS011;1901;48.172;12.824;2024-03-02T02:01:48;49.30;;;16.07;;
3771;SDS011;1901;48.172;12.824;2024-03-02T02:04:13;58.37;;;16.53;;
3771;SDS011;1901;48.172;12.824;2024-03-02T02:06:38;50.25;;;15.60;;
3771;SDS011;1901;48.172;12.824;2024-03-02T02:09:03;57.47;;;16.45;;
3771;SDS011;1901;48.172;12.824;2024-03-02T02:11:29;43.30;;;15.47;;
3771;SDS011;1901;48.172;12.824;2024-03-02T02:13:54;38.63;;;15.57;;
3771;SDS011;1901;48.172;12.824;2024-03-02T02:16:20;44.08;;;15.98;;
3771;SDS011;1901;48.172;12.824;2024-03-02T02:18:45;76.50;;;17.45;;
3771;SDS011;1901;48.172;12.824;2024-03-02T02:21:11;119.30;;;19.63;;
3771;SDS011;1901;48.172;12.824;2024-03-02T02:23:36;181.93;;;20.98;;
3771;SDS011;1901;48.172;12.824;2024-03-02T02:26:01;114.40;;;18.50;;
3771;SDS011;1901;48.172;12.824;2024-03-02T02:28:27;152.60;;;19.45;;
3771;SDS011;1901;48.172;12.824;2024-03-02T02:30:54;144.57;;;18.60;;
3771;SDS011;1901;48.172;12.824;2024-03-02T02:33:21;146.98;;;20.15;;
3771;SDS011;1901;48.172;12.824;2024-03-02T02:35:46;165.15;;;19.42;;
3771;SDS011;1901;48.172;12.824;2024-03-02T02:38:11;205.27;;;24.08;;
3771;SDS011;1901;48.172;12.824;2024-03-02T02:40:36;143.93;;;20.92;;
3771;SDS011;1901;48.172;12.824;2024-03-02T02:43:01;133.53;;;19.40;;
3771;SDS011;1901;48.172;12.824;2024-03-02T02:45:27;183.37;;;20.27;;
3771;SDS011;1901;48.172;12.824;2024-03-02T02:47:52;123.07;;;19.90;;
3771;SDS011;1901;48.172;12.824;2024-03-02T02:50:17;102.00;;;17.35;;
3771;SDS011;1901;48.172;12.824;2024-03-02T02:52:42;111.23;;;19.40;;
3771;SDS011;1901;48.172;12.824;2024-03-02T02:55:08;76.27;;;17.63;;
3771;SDS011;1901;48.172;12.824;2024-03-02T02:57:34;81.85;;;16.23;;
3771;SDS011;1901;48.172;12.824;2024-03-02T03:02:35;138.30;;;20.40;;
3771;SDS011;1901;48.172;12.824;2024-03-02T03:05:00;102.88;;;18.38;;
3771;SDS011;1901;48.172;12.824;2024-03-02T03:07:25;128.38;;;18.83;;
3771;SDS011;1901;48.172;12.824;2024-03-02T03:09:51;100.80;;;15.40;;
3771;SDS011;1901;48.172;12.824;2024-03-02T03:12:16;122.07;;;17.33;;
3771;SDS011;1901;48.172;12.824;2024-03-02T03:14:41;110.40;;;15.23;;
3771;SDS011;1901;48.172;12.824;2024-03-02T03:17:06;86.82;;;17.38;;
3771;SDS011;1901;48.172;12.824;2024-03-02T03:19:33;66.28;;;14.80;;
3771;SDS011;1901;48.172;12.824;2024-03-02T03:21:58;74.73;;;15.40;;
3771;SDS011;1901;48.172;12.824;2024-03-02T03:24:23;88.57;;;14.63;;
3771;SDS011;1901;48.172;12.824;2024-03-02T03:26:48;71.93;;;14.82;;
3771;SDS011;1901;48.172;12.824;2024-03-02T03:29:13;90.57;;;16.07;;
3771;SDS011;1901;48.172;12.824;2024-03-02T03:31:39;78.50;;;15.52;;
3771;SDS011;1901;48.172;12.824;2024-03-02T03:34:04;67.28;;;15.73;;
3771;SDS011;1901;48.172;12.824;2024-03-02T03:36:29;75.23;;;15.50;;
3771;SDS011;1901;48.172;12.824;2024-03-02T03:38:54;60.93;;;16.20;;
3771;SDS011;1901;48.172;12.824;2024-03-02T03:41:19;87.30;;;16.57;;
3771;SDS011;1901;48.172;12.824;2024-03-02T03:43:44;55.22;;;14.73;;
3771;SDS011;1901;48.172;12.824;2024-03-02T03:46:09;173.80;;;32.43;;
3771;SDS011;1901;48.172;12.824;2024-03-02T03:48:35;78.53;;;18.85;;
3771;SDS011;1901;48.172;12.824;2024-03-02T03:51:00;80.18;;;16.40;;
3771;SDS011;1901;48.172;12.824;2024-03-02T03:53:28;69.97;;;16.70;;
3771;SDS011;1901;48.172;12.824;2024-03-02T03:55:53;64.03;;;17.98;;
3771;SDS011;1901;48.172;12.824;2024-03-02T03:58:18;79.78;;;18.60;;
3771;SDS011;1901;48.172;12.824;2024-03-02T04:00:45;110.13;;;19.80;;
3771;SDS011;1901;48.172;12.824;2024-03-02T04:03:10;89.37;;;19.23;;
3771;SDS011;1901;48.172;12.824;2024-03-02T04:05:36;91.40;;;18.97;;
3771;SDS011;1901;48.172;12.824;2024-03-02T04:08:01;139.53;;;20.23;;
3771;SDS011;1901;48.172;12.824;2024-03-02T04:10:26;81.57;;;19.13;;
3771;SDS011;1901;48.172;12.824;2024-03-02T04:12:51;112.90;;;19.90;;
3771;SDS011;1901;48.172;12.824;2024-03-02T04:15:16;98.30;;;20.27;;
3771;SDS011;1901;48.172;12.824;2024-03-02T04:17:43;94.68;;;20.67;;
3771;SDS011;1901;48.172;12.824;2024-03-02T04:20:08;168.03;;;28.63;;
3771;SDS011;1901;48.172;12.824;2024-03-02T04:22:34;121.47;;;20.77;;
3771;SDS011;1901;48.172;12.824;2024-03-02T04:25:00;95.03;;;20.30;;
3771;SDS011;1901;48.172;12.824;2024-03-02T04:27:25;118.03;;;19.30;;
3771;SDS011;1901;48.172;12.824;2024-03-02T04:29:51;131.38;;;21.10;;
3771;SDS011;1901;48.172;12.824;2024-03-02T04:32:16;135.57;;;18.47;;
3771;SDS011;1901;48.172;12.824;2024-03-02T04:34:41;112.23;;;19.00;;
3771;SDS011;1901;48.172;12.824;2024-03-02T04:37:07;119.25;;;21.00;;
3771;SDS011;1901;48.172;12.824;2024-03-02T04:39:34;107.85;;;19.52;;
3771;SDS011;1901;48.172;12.824;2024-03-02T04:41:59;103.22;;;19.17;;
3771;SDS011;1901;48.172;12.824;2024-03-02T04:44:24;164.03;;;22.83;;
3771;SDS011;1901;48.172;12.824;2024-03-02T04:46:49;135.27;;;20.63;;
3771;SDS011;1901;48.172;12.824;2024-03-02T04:49:15;113.35;;;20.15;;
3771;SDS011;1901;48.172;12.824;2024-03-02T04:51:40;101.18;;;18.13;;
3771;SDS011;1901;48.172;12.824;2024-03-02T04:54:05;143.43;;;20.73;;
3771;SDS011;1901;48.172;12.824;2024-03-02T04:56:30;79.50;;;17.40;;
3771;SDS011;1901;48.172;12.824;2024-03-02T04:59:14;87.85;;;18.00;;
3771;SDS011;1901;48.172;12.824;2024-03-02T05:01:40;97.65;;;18.42;;
3771;SDS011;1901;48.172;12.824;2024-03-02T05:04:05;72.43;;;16.33;;
3771;SDS011;1901;48.172;12.824;2024-03-02T05:06:30;77.97;;;15.87;;
3771;SDS011;1901;48.172;12.824;2024-03-02T05:08:55;87.47;;;16.90;;
3771;SDS011;1901;48.172;12.824;2024-03-02T05:11:21;75.85;;;14.85;;
3771;SDS011;1901;48.172;12.824;2024-03-02T05:14:07;81.70;;;15.85;;
3771;SDS011;1901;48.172;12.824;2024-03-02T05:16:33;93.07;;;18.33;;
3771;SDS011;1901;48.172;12.824;2024-03-02T05:18:58;99.18;;;28.13;;
3771;SDS011;1901;48.172;12.824;2024-03-02T05:21:24;108.53;;;21.13;;
3771;SDS011;1901;48.172;12.824;2024-03-02T05:23:49;70.28;;;16.58;;
3771;SDS011;1901;48.172;12.824;2024-03-02T05:26:14;71.37;;;16.27;;
3771;SDS011;1901;48.172;12.824;2024-03-02T05:28:39;73.50;;;14.90;;
3771;SDS011;1901;48.172;12.824;2024-03-02T05:31:04;62.75;;;15.70;;
3771;SDS011;1901;48.172;12.824;2024-03-02T05:33:30;55.65;;;14.80;;
3771;SDS011;1901;48.172;12.824;2024-03-02T05:35:56;76.32;;;15.50;;
3771;SDS011;1901;48.172;12.824;2024-03-02T05:38:21;65.00;;;15.73;;
3771;SDS011;1901;48.172;12.824;2024-03-02T05:40:47;70.18;;;16.33;;
3771;SDS011;1901;48.172;12.824;2024-03-02T05:43:12;77.67;;;16.63;;
3771;SDS011;1901;48.172;12.824;2024-03-02T05:45:37;85.43;;;18.75;;
3771;SDS011;1901;48.172;12.824;2024-03-02T05:48:02;86.17;;;18.23;;
3771;SDS011;1901;48.172;12.824;2024-03-02T05:50:27;383.37;;;42.70;;
3771;SDS011;1901;48.172;12.824;2024-03-02T05:52:53;125.80;;;20.10;;
3771;SDS011;1901;48.172;12.824;2024-03-02T05:55:18;100.50;;;18.53;;
3771;SDS011;1901;48.172;12.824;2024-03-02T05:57:43;100.40;;;19.08;;
3771;SDS011;1901;48.172;12.824;2024-03-02T06:00:08;89.57;;;18.73;;
3771;SDS011;1901;48.172;12.824;2024-03-02T06:02:34;52.60;;;14.23;;
3771;SDS011;1901;48.172;12.824;2024-03-02T06:05:00;84.55;;;16.35;;
3771;SDS011;1901;48.172;12.824;2024-03-02T06:07:25;52.83;;;14.20;;
3771;SDS011;1901;48.172;12.824;2024-03-02T06:09:50;94.70;;;16.07;;
3771;SDS011;1901;48.172;12.824;2024-03-02T06:12:17;78.85;;;17.05;;
3771;SDS011;1901;48.172;12.824;2024-03-02T06:14:42;103.53;;;17.47;;
3771;SDS011;1901;48.172;12.824;2024-03-02T06:17:08;64.47;;;14.13;;
3771;SDS011;1901;48.172;12.824;2024-03-02T06:19:33;58.65;;;13.98;;
3771;SDS011;1901;48.172;12.824;2024-03-02T06:21:58;86.30;;;14.98;;
3771;SDS011;1901;48.172;12.824;2024-03-02T06:24:23;52.72;;;13.15;;
3771;SDS011;1901;48.172;12.824;2024-03-02T06:26:48;82.77;;;15.50;;
3771;SDS011;1901;48.172;12.824;2024-03-02T06:29:13;63.38;;;14.30;;
3771;SDS011;1901;48.172;12.824;2024-03-02T06:31:38;65.03;;;15.13;;
3771;SDS011;1901;48.172;12.824;2024-03-02T06:34:04;77.80;;;16.90;;
3771;SDS011;1901;48.172;12.824;2024-03-02T06:36:29;83.25;;;15.52;;
3771;SDS011;1901;48.172;12.824;2024-03-02T06:38:55;99.10;;;15.17;;
3771;SDS011;1901;48.172;12.824;2024-03-02T06:41:20;53.70;;;14.17;;
3771;SDS011;1901;48.172;12.824;2024-03-02T06:43:45;62.97;;;15.33;;
3771;SDS011;1901;48.172;12.824;2024-03-02T06:46:10;59.17;;;13.80;;
3771;SDS011;1901;48.172;12.824;2024-03-02T06:48:39;68.10;;;15.23;;
3771;SDS011;1901;48.172;12.824;2024-03-02T06:51:04;70.80;;;15.27;;
3771;SDS011;1901;48.172;12.824;2024-03-02T06:53:30;58.78;;;14.05;;
3771;SDS011;1901;48.172;12.824;2024-03-02T06:55:56;61.55;;;14.82;;
3771;SDS011;1901;48.172;12.824;2024-03-02T06:58:21;71.17;;;16.03;;
3771;SDS011;1901;48.172;12.824;2024-03-02T07:00:46;80.47;;;15.63;;
3771;SDS011;1901;48.172;12.824;2024-03-02T07:03:13;76.97;;;15.27;;
3771;SDS011;1901;48.172;12.824;2024-03-02T07:05:38;86.97;;;16.73;;
3771;SDS011;1901;48.172;12.824;2024-03-02T07:08:04;105.13;;;16.87;;
3771;SDS011;1901;48.172;12.824;2024-03-02T07:10:30;81.57;;;15.05;;
3771;SDS011;1901;48.172;12.824;2024-03-02T07:12:55;66.68;;;14.18;;
3771;SDS011;1901;48.172;12.824;2024-03-02T07:15:20;76.60;;;15.23;;
3771;SDS011;1901;48.172;12.824;2024-03-02T07:18:04;66.43;;;14.35;;
3771;SDS011;1901;48.172;12.824;2024-03-02T07:20:29;55.85;;;15.30;;
3771;SDS011;1901;48.172;12.824;2024-03-02T07:22:54;48.43;;;13.10;;
3771;SDS011;1901;48.172;12.824;2024-03-02T07:25:19;59.80;;;14.97;;
3771;SDS011;1901;48.172;12.824;2024-03-02T07:27:45;50.27;;;13.30;;
3771;SDS011;1901;48.172;12.824;2024-03-02T07:30:13;50.63;;;13.90;;
3771;SDS011;1901;48.172;12.824;2024-03-02T07:32:38;65.97;;;15.93;;
3771;SDS011;1901;48.172;12.824;2024-03-02T07:35:04;48.17;;;13.05;;
3771;SDS011;1901;48.172;12.824;2024-03-02T07:37:29;51.25;;;14.35;;
3771;SDS011;1901;48.172;12.824;2024-03-02T07:39:55;45.20;;;12.30;;
3771;SDS011;1901;48.172;12.824;2024-03-02T07:42:20;49.70;;;13.68;;
3771;SDS011;1901;48.172;12.824;2024-03-02T07:44:45;54.38;;;15.90;;
3771;SDS011;1901;48.172;12.824;2024-03-02T07:47:10;56.53;;;13.03;;
3771;SDS011;1901;48.172;12.824;2024-03-02T07:49:35;73.00;;;15.17;;
3771;SDS011;1901;48.172;12.824;2024-03-02T07:52:01;49.97;;;13.47;;
3771;SDS011;1901;48.172;12.824;2024-03-02T07:54:26;70.65;;;12.93;;
3771;SDS011;1901;48.172;12.824;2024-03-02T07:56:51;55.73;;;13.73;;
3771;SDS011;1901;48.172;12.824;2024-03-02T07:59:16;77.97;;;14.30;;
3771;SDS011;1901;48.172;12.824;2024-03-02T08:01:41;37.00;;;11.07;;
3771;SDS011;1901;48.172;12.824;2024-03-02T08:04:06;47.13;;;13.17;;
3771;SDS011;1901;48.172;12.824;2024-03-02T08:06:32;66.80;;;13.80;;
3771;SDS011;1901;48.172;12.824;2024-03-02T08:08:57;71.73;;;14.37;;
3771;SDS011;1901;48.172;12.824;2024-03-02T08:11:23;41.03;;;13.30;;
3771;SDS011;1901;48.172;12.824;2024-03-02T08:13:48;56.83;;;12.55;;
3771;SDS011;1901;48.172;12.824;2024-03-02T08:16:16;44.50;;;13.87;;
3771;SDS011;1901;48.172;12.824;2024-03-02T08:18:44;48.47;;;14.30;;
3771;SDS011;1901;48.172;12.824;2024-03-02T08:21:09;32.40;;;12.50;;
3771;SDS011;1901;48.172;12.824;2024-03-02T08:23:35;35.10;;;13.47;;
3771;SDS011;1901;48.172;12.824;2024-03-02T08:26:00;42.25;;;12.65;;
3771;SDS011;1901;48.172;12.824;2024-03-02T08:28:25;47.13;;;14.17;;
3771;SDS011;1901;48.172;12.824;2024-03-02T08:30:51;39.88;;;16.35;;
3771;SDS011;1901;48.172;12.824;2024-03-02T08:33:16;36.20;;;13.23;;
3771;SDS011;1901;48.172;12.824;2024-03-02T08:35:41;32.57;;;13.83;;
3771;SDS011;1901;48.172;12.824;2024-03-02T08:38:06;31.40;;;13.87;;
3771;SDS011;1901;48.172;12.824;2024-03-02T08:40:31;25.70;;;12.37;;
3771;SDS011;1901;48.172;12.824;2024-03-02T08:42:57;27.48;;;11.80;;
3771;SDS011;1901;48.172;12.824;2024-03-02T08:45:22;29.10;;;12.23;;
3771;SDS011;1901;48.172;12.824;2024-03-02T08:47:47;26.47;;;12.50;;
3771;SDS011;1901;48.172;12.824;2024-03-02T08:50:13;28.23;;;12.70;;
3771;SDS011;1901;48.172;12.824;2024-03-02T08:52:38;24.20;;;12.33;;
3771;SDS011;1901;48.172;12.824;2024-03-02T08:55:03;27.23;;;11.57;;
3771;SDS011;1901;48.172;12.824;2024-03-02T08:57:29;26.30;;;11.60;;
3771;SDS011;1901;48.172;12.824;2024-03-02T08:59:54;28.47;;;12.27;;
3771;SDS011;1901;48.172;12.824;2024-03-02T09:02:19;26.40;;;12.27;;
3771;SDS011;1901;48.172;12.824;2024-03-02T09:04:44;28.30;;;12.30;;
3771;SDS011;1901;48.172;12.824;2024-03-02T09:07:10;25.50;;;12.33;;
3771;SDS011;1901;48.172;12.824;2024-03-02T09:09:35;28.77;;;12.43;;
3771;SDS011;1901;48.172;12.824;2024-03-02T09:12:00;28.73;;;13.27;;
3771;SDS011;1901;48.172;12.824;2024-03-02T09:14:25;49.73;;;20.73;;
3771;SDS011;1901;48.172;12.824;2024-03-02T09:16:51;35.57;;;14.87;;
3771;SDS011;1901;48.172;12.824;2024-03-02T09:19:16;45.90;;;22.90;;
3771;SDS011;1901;48.172;12.824;2024-03-02T09:21:44;40.42;;;18.55;;
3771;SDS011;1901;48.172;12.824;2024-03-02T09:24:09;26.83;;;12.43;;
3771;SDS011;1901;48.172;12.824;2024-03-02T09:26:35;24.75;;;11.80;;
3771;SDS011;1901;48.172;12.824;2024-03-02T09:29:00;31.70;;;13.80;;
3771;SDS011;1901;48.172;12.824;2024-03-02T09:31:25;29.20;;;13.57;;
3771;SDS011;1901;48.172;12.824;2024-03-02T09:33:51;24.02;;;10.98;;
3771;SDS011;1901;48.172;12.824;2024-03-02T09:36:16;28.37;;;12.90;;
3771;SDS011;1901;48.172;12.824;2024-03-02T09:38:42;30.10;;;14.25;;
3771;SDS011;1901;48.172;12.824;2024-03-02T09:41:07;27.55;;;14.35;;
3771;SDS011;1901;48.172;12.824;2024-03-02T09:43:32;28.80;;;15.63;;
3771;SDS011;1901;48.172;12.824;2024-03-02T09:45:57;31.02;;;16.17;;
3771;SDS011;1901;48.172;12.824;2024-03-02T09:48:22;35.30;;;16.07;;
3771;SDS011;1901;48.172;12.824;2024-03-02T09:50:50;60.43;;;37.43;;
3771;SDS011;1901;48.172;12.824;2024-03-02T09:53:15;37.45;;;19.25;;
3771;SDS011;1901;48.172;12.824;2024-03-02T09:55:46;33.10;;;18.42;;
3771;SDS011;1901;48.172;12.824;2024-03-02T09:58:12;28.88;;;13.43;;
3771;SDS011;1901;48.172;12.824;2024-03-02T10:00:37;30.10;;;13.83;;
3771;SDS011;1901;48.172;12.824;2024-03-02T10:03:02;28.25;;;13.95;;
3771;SDS011;1901;48.172;12.824;2024-03-02T10:05:29;31.77;;;14.18;;
3771;SDS011;1901;48.172;12.824;2024-03-02T10:08:06;28.30;;;12.80;;
3771;SDS011;1901;48.172;12.824;2024-03-02T10:10:37;27.05;;;12.35;;
3771;SDS011;1901;48.172;12.824;2024-03-02T10:13:07;27.70;;;13.00;;
3771;SDS011;1901;48.172;12.824;2024-03-02T10:15:32;29.48;;;13.68;;
3771;SDS011;1901;48.172;12.824;2024-03-02T10:17:58;27.27;;;14.35;;
3771;SDS011;1901;48.172;12.824;2024-03-02T10:22:49;28.30;;;13.98;;
3771;SDS011;1901;48.172;12.824;2024-03-02T10:25:32;47.47;;;28.98;;
3771;SDS011;1901;48.172;12.824;2024-03-02T10:27:58;25.05;;;13.52;;
3771;SDS011;1901;48.172;12.824;2024-03-02T10:30:24;33.40;;;17.95;;
3771;SDS011;1901;48.172;12.824;2024-03-02T10:32:49;28.17;;;14.67;;
3771;SDS011;1901;48.172;12.824;2024-03-02T10:35:15;27.42;;;13.90;;
3771;SDS011;1901;48.172;12.824;2024-03-02T10:37:40;26.63;;;13.35;;
3771;SDS011;1901;48.172;12.824;2024-03-02T10:40:06;27.05;;;13.88;;
3771;SDS011;1901;48.172;12.824;2024-03-02T10:42:33;26.70;;;13.75;;
3771;SDS011;1901;48.172;12.824;2024-03-02T10:44:58;26.77;;;15.00;;
3771;SDS011;1901;48.172;12.824;2024-03-02T10:47:23;28.07;;;13.97;;
3771;SDS011;1901;48.172;12.824;2024-03-02T10:49:50;24.38;;;12.60;;
3771;SDS011;1901;48.172;12.824;2024-03-02T10:52:16;26.30;;;13.25;;
3771;SDS011;1901;48.172;12.824;2024-03-02T10:54:42;26.23;;;13.45;;
3771;SDS011;1901;48.172;12.824;2024-03-02T10:57:08;32.67;;;17.20;;
3771;SDS011;1901;48.172;12.824;2024-03-02T10:59:36;25.08;;;13.82;;
3771;SDS011;1901;48.172;12.824;2024-03-02T11:02:02;26.42;;;12.02;;
3771;SDS011;1901;48.172;12.824;2024-03-02T11:04:29;30.30;;;14.77;;
3771;SDS011;1901;48.172;12.824;2024-03-02T11:07:15;28.20;;;15.02;;
3771;SDS011;1901;48.172;12.824;2024-03-02T11:09:45;27.98;;;16.30;;
3771;SDS011;1901;48.172;12.824;2024-03-02T11:12:16;26.02;;;14.38;;
3771;SDS011;1901;48.172;12.824;2024-03-02T11:14:44;24.73;;;12.80;;
3771;SDS011;1901;48.172;12.824;2024-03-02T11:17:09;27.97;;;14.50;;
3771;SDS011;1901;48.172;12.824;2024-03-02T11:19:35;26.52;;;14.95;;
3771;SDS011;1901;48.172;12.824;2024-03-02T11:22:02;26.77;;;15.95;;
3771;SDS011;1901;48.172;12.824;2024-03-02T11:33:07;26.90;;;13.00;;
3771;SDS011;1901;48.172;12.824;2024-03-02T11:38:39;35.85;;;17.83;;
3771;SDS011;1901;48.172;12.824;2024-03-02T11:41:12;25.67;;;12.95;;
3771;SDS011;1901;48.172;12.824;2024-03-02T11:43:42;27.05;;;13.55;;
3771;SDS011;1901;48.172;12.824;2024-03-02T11:46:17;25.92;;;13.43;;
3771;SDS011;1901;48.172;12.824;2024-03-02T11:48:48;27.20;;;13.60;;
3771;SDS011;1901;48.172;12.824;2024-03-02T11:51:18;26.42;;;13.15;;
3771;SDS011;1901;48.172;12.824;2024-03-02T11:53:49;29.30;;;14.00;;
3771;SDS011;1901;48.172;12.824;2024-03-02T11:56:17;29.55;;;13.35;;
3771;SDS011;1901;48.172;12.824;2024-03-02T11:58:43;36.03;;;16.65;;
3771;SDS011;1901;48.172;12.824;2024-03-02T12:01:16;41.80;;;19.35;;
3771;SDS011;1901;48.172;12.824;2024-03-02T12:03:44;29.45;;;13.93;;
3771;SDS011;1901;48.172;12.824;2024-03-02T12:06:22;25.88;;;12.32;;
3771;SDS011;1901;48.172;12.824;2024-03-02T12:09:01;24.48;;;12.02;;
3771;SDS011;1901;48.172;12.824;2024-03-02T12:11:46;23.38;;;11.98;;
3771;SDS011;1901;48.172;12.824;2024-03-02T12:14:11;31.48;;;14.48;;
3771;SDS011;1901;48.172;12.824;2024-03-02T12:16:45;26.42;;;12.63;;
3771;SDS011;1901;48.172;12.824;2024-03-02T12:19:20;38.08;;;18.23;;
3771;SDS011;1901;48.172;12.824;2024-03-02T12:21:48;22.25;;;12.05;;
3771;SDS011;1901;48.172;12.824;2024-03-02T12:24:27;23.63;;;11.82;;
3771;SDS011;1901;48.172;12.824;2024-03-02T12:27:08;25.77;;;12.32;;
3771;SDS011;1901;48.172;12.824;2024-03-02T12:29:52;28.70;;;14.95;;
3771;SDS011;1901;48.172;12.824;2024-03-02T12:32:30;24.83;;;12.43;;
3771;SDS011;1901;48.172;12.824;2024-03-02T12:37:53;24.50;;;12.60;;
3771;SDS011;1901;48.172;12.824;2024-03-02T12:43:29;26.13;;;14.23;;
3771;SDS011;1901;48.172;12.824;2024-03-02T12:46:20;24.50;;;12.40;;
3771;SDS011;1901;48.172;12.824;2024-03-02T12:48:46;28.30;;;13.10;;
3771;SDS011;1901;48.172;12.824;2024-03-02T12:54:13;24.95;;;11.82;;
3771;SDS011;1901;48.172;12.824;2024-03-02T13:08:21;26.85;;;12.85;;
3771;SDS011;1901;48.172;12.824;2024-03-02T13:16:51;25.52;;;14.73;;
3771;SDS011;1901;48.172;12.824;2024-03-02T13:19:34;27.45;;;13.05;;
3771;SDS011;1901;48.172;12.824;2024-03-02T13:22:02;31.85;;;13.27;;
3771;SDS011;1901;48.172;12.824;2024-03-02T13:24:34;30.15;;;14.05;;
3771;SDS011;1901;48.172;12.824;2024-03-02T13:27:20;31.80;;;14.32;;
3771;SDS011;1901;48.172;12.824;2024-03-02T13:29:45;26.30;;;12.43;;
3771;SDS011;1901;48.172;12.824;2024-03-02T13:32:14;31.65;;;14.68;;
3771;SDS011;1901;48.172;12.824;2024-03-02T13:35:14;96.53;;;47.10;;
3771;SDS011;1901;48.172;12.824;2024-03-02T13:37:43;32.28;;;13.40;;
3771;SDS011;1901;48.172;12.824;2024-03-02T13:40:21;30.15;;;13.20;;
3771;SDS011;1901;48.172;12.824;2024-03-02T13:42:51;36.95;;;17.85;;
3771;SDS011;1901;48.172;12.824;2024-03-02T13:45:27;26.58;;;11.98;;
3771;SDS011;1901;48.172;12.824;2024-03-02T13:47:53;29.08;;;12.57;;
3771;SDS011;1901;48.172;12.824;2024-03-02T13:50:18;26.60;;;12.55;;
3771;SDS011;1901;48.172;12.824;2024-03-02T13:55:20;22.58;;;9.75;;
3771;SDS011;1901;48.172;12.824;2024-03-02T14:00:18;28.27;;;10.57;;
3771;SDS011;1901;48.172;12.824;2024-03-02T14:02:55;24.70;;;11.65;;
3771;SDS011;1901;48.172;12.824;2024-03-02T14:05:34;24.20;;;10.75;;
3771;SDS011;1901;48.172;12.824;2024-03-02T14:08:00;25.48;;;12.15;;
3771;SDS011;1901;48.172;12.824;2024-03-02T14:10:46;31.77;;;15.07;;
3771;SDS011;1901;48.172;12.824;2024-03-02T14:13:30;27.52;;;10.68;;
3771;SDS011;1901;48.172;12.824;2024-03-02T14:16:00;33.20;;;14.68;;
3771;SDS011;1901;48.172;12.824;2024-03-02T14:18:28;26.80;;;11.25;;
3771;SDS011;1901;48.172;12.824;2024-03-02T14:21:03;30.67;;;12.30;;
3771;SDS011;1901;48.172;12.824;2024-03-02T14:26:20;28.88;;;12.70;;
3771;SDS011;1901;48.172;12.824;2024-03-02T14:31:24;29.52;;;13.90;;
3771;SDS011;1901;48.172;12.824;2024-03-02T14:34:00;30.45;;;14.75;;
3771;SDS011;1901;48.172;12.824;2024-03-02T14:36:37;31.52;;;13.75;;
3771;SDS011;1901;48.172;12.824;2024-03-02T14:39:03;32.67;;;14.93;;
3771;SDS011;1901;48.172;12.824;2024-03-02T14:41:35;33.83;;;14.88;;
3771;SDS011;1901;48.172;12.824;2024-03-02T14:44:10;33.60;;;14.63;;
3771;SDS011;1901;48.172;12.824;2024-03-02T14:46:38;34.03;;;15.90;;
3771;SDS011;1901;48.172;12.824;2024-03-02T14:49:06;36.65;;;15.45;;
3771;SDS011;1901;48.172;12.824;2024-03-02T14:51:43;31.75;;;14.73;;
3771;SDS011;1901;48.172;12.824;2024-03-02T14:59:34;37.70;;;16.65;;
3771;SDS011;1901;48.172;12.824;2024-03-02T15:02:05;30.48;;;14.40;;
3771;SDS011;1901;48.172;12.824;2024-03-02T15:04:31;30.23;;;14.48;;
3771;SDS011;1901;48.172;12.824;2024-03-02T15:09:47;32.97;;;14.68;;
3771;SDS011;1901;48.172;12.824;2024-03-02T15:12:15;34.58;;;15.20;;
3771;SDS011;1901;48.172;12.824;2024-03-02T15:14:43;27.27;;;13.50;;
3771;SDS011;1901;48.172;12.824;2024-03-02T15:17:15;26.73;;;12.20;;
3771;SDS011;1901;48.172;12.824;2024-03-02T15:19:43;27.77;;;12.55;;
3771;SDS011;1901;48.172;12.824;2024-03-02T15:22:14;28.85;;;13.85;;
3771;SDS011;1901;48.172;12.824;2024-03-02T15:27:18;27.00;;;12.13;;
3771;SDS011;1901;48.172;12.824;2024-03-02T15:29:51;28.35;;;13.35;;
3771;SDS011;1901;48.172;12.824;2024-03-02T15:35:06;28.83;;;14.77;;
3771;SDS011;1901;48.172;12.824;2024-03-02T15:37:40;27.38;;;13.77;;